sensor_id;sensor_type;location;lat;lon;timestamp;pressure;altitude;pressure_sealevel;temperature;humidity
46223;BME280;31943;51.410;7.564;2023-02-15T07:25:34;101397.56;;;1.64;64.94
46223;BME280;31943;51.410;7.564;2023-02-15T07:28:01;101398.44;;;1.64;65.06
46223;BME280;31943;51.410;7.564;2023-02-15T07:30:28;101404.56;;;1.66;65.08
46223;BME280;31943;51.410;7.564;2023-02-15T07:32:55;101396.94;;;1.68;65.25
46223;BME280;31943;51.410;7.564;2023-02-15T07:35:20;101395.38;;;1.70;65.17
46223;BME280;31943;51.410;7.564;2023-02-15T07:37:46;101395.66;;;1.74;65.32
46223;BME280;31943;51.410;7.564;2023-02-15T07:40:12;101399.91;;;1.74;65.26
46223;BME280;31943;51.410;7.564;2023-02-15T07:42:39;101396.06;;;1.81;65.30
46223;BME280;31943;51.410;7.564;2023-02-15T07:45:05;101397.06;;;1.83;65.45
46223;BME280;31943;51.410;7.564;2023-02-15T07:47:30;101383.69;;;1.88;65.54
46223;BME280;31943;51.410;7.564;2023-02-15T07:49:56;101377.03;;;1.92;65.88
46223;BME280;31943;51.410;7.564;2023-02-15T07:52:22;101375.63;;;1.97;65.60
46223;BME280;31943;51.410;7.564;2023-02-15T07:54:48;101375.91;;;2.02;65.70
46223;BME280;31943;51.410;7.564;2023-02-15T07:57:14;101368.41;;;2.05;65.79
46223;BME280;31943;51.410;7.564;2023-02-15T07:59:41;101372.22;;;2.11;65.63
46223;BME280;31943;51.410;7.564;2023-02-15T08:02:08;101359.56;;;2.14;65.80
46223;BME280;31943;51.410;7.564;2023-02-15T08:04:35;101356.56;;;2.22;65.81
46223;BME280;31943;51.410;7.564;2023-02-15T08:07:00;101361.13;;;2.26;66.11
46223;BME280;31943;51.410;7.564;2023-02-15T08:09:26;101362.16;;;2.29;65.98
46223;BME280;31943;51.410;7.564;2023-02-15T08:11:51;101359.78;;;2.32;65.79
46223;BME280;31943;51.410;7.564;2023-02-15T08:14:18;101353.25;;;2.37;65.90
46223;BME280;31943;51.410;7.564;2023-02-15T08:16:49;101364.03;;;2.45;66.12
46223;BME280;31943;51.410;7.564;2023-02-15T08:19:17;101352.38;;;2.52;66.03
46223;BME280;31943;51.410;7.564;2023-02-15T08:21:45;101357.13;;;2.59;65.94
46223;BME280;31943;51.410;7.564;2023-02-15T08:24:13;101345.38;;;2.64;66.15
46223;BME280;31943;51.410;7.564;2023-02-15T08:26:39;101348.31;;;2.70;66.23
46223;BME280;31943;51.410;7.564;2023-02-15T08:29:05;101347.09;;;2.79;66.23
46223;BME280;31943;51.410;7.564;2023-02-15T08:31:31;101346.66;;;2.86;66.46
46223;BME280;31943;51.410;7.564;2023-02-15T08:33:59;101347.91;;;2.92;66.56
46223;BME280;31943;51.410;7.564;2023-02-15T08:36:27;101344.00;;;2.99;66.61
46223;BME280;31943;51.410;7.564;2023-02-15T08:38:53;101341.84;;;3.07;66.64
46223;BME280;31943;51.410;7.564;2023-02-15T08:41:23;101334.75;;;3.17;66.68
46223;BME280;31943;51.410;7.564;2023-02-15T08:43:52;101341.03;;;3.23;66.81
46223;BME280;31943;51.410;7.564;2023-02-15T08:46:21;101335.53;;;3.31;66.69
46223;BME280;31943;51.410;7.564;2023-02-15T08:48:47;101335.06;;;3.39;66.63
46223;BME280;31943;51.410;7.564;2023-02-15T08:51:16;101329.53;;;3.47;66.69
46223;BME280;31943;51.410;7.564;2023-02-15T08:53:43;101324.00;;;3.56;66.67
46223;BME280;31943;51.410;7.564;2023-02-15T08:56:10;101317.50;;;3.63;66.62
46223;BME280;31943;51.410;7.564;2023-02-15T08:58:37;101316.13;;;3.69;66.46
46223;BME280;31943;51.410;7.564;2023-02-15T09:01:09;101316.47;;;3.75;66.41
46223;BME280;31943;51.410;7.564;2023-02-15T09:03:35;101321.88;;;3.80;66.61
46223;BME280;31943;51.410;7.564;2023-02-15T09:06:02;101316.31;;;3.89;66.38
46223;BME280;31943;51.410;7.564;2023-02-15T09:08:32;101317.53;;;3.95;66.23
46223;BME280;31943;51.410;7.564;2023-02-15T09:11:06;101311.16;;;4.05;66.00
46223;BME280;31943;51.410;7.564;2023-02-15T09:13:32;101308.25;;;4.15;65.83
46223;BME280;31943;51.410;7.564;2023-02-15T09:15:59;101313.22;;;4.27;65.72
46223;BME280;31943;51.410;7.564;2023-02-15T09:18:25;101318.94;;;4.38;65.26
46223;BME280;31943;51.410;7.564;2023-02-15T09:20:51;101311.81;;;4.50;65.17
46223;BME280;31943;51.410;7.564;2023-02-15T09:23:16;101299.34;;;4.60;64.99
46223;BME280;31943;51.410;7.564;2023-02-15T09:25:44;101296.34;;;4.68;64.54
46223;BME280;31943;51.410;7.564;2023-02-15T09:28:09;101298.72;;;4.82;64.47
46223;BME280;31943;51.410;7.564;2023-02-15T09:30:36;101297.78;;;4.98;64.17
46223;BME280;31943;51.410;7.564;2023-02-15T09:33:02;101289.41;;;5.20;63.75
46223;BME280;31943;51.410;7.564;2023-02-15T09:35:28;101285.19;;;5.40;63.18
46223;BME280;31943;51.410;7.564;2023-02-15T09:37:53;101284.41;;;5.60;62.61
46223;BME280;31943;51.410;7.564;2023-02-15T09:40:21;101285.28;;;5.79;62.23
46223;BME280;31943;51.410;7.564;2023-02-15T09:46:05;101283.81;;;6.23;61.48
46223;BME280;31943;51.410;7.564;2023-02-15T09:48:41;101292.41;;;6.41;61.22
46223;BME280;31943;51.410;7.564;2023-02-15T09:54:19;101281.44;;;6.68;60.52
46223;BME280;31943;51.410;7.564;2023-02-15T09:56:51;101281.00;;;6.78;60.39
46223;BME280;31943;51.410;7.564;2023-02-15T09:59:30;101274.81;;;6.96;59.89
46223;BME280;31943;51.410;7.564;2023-02-15T10:02:11;101271.88;;;7.09;59.87
46223;BME280;31943;51.410;7.564;2023-02-15T10:04:54;101275.94;;;7.23;59.42
46223;BME280;31943;51.410;7.564;2023-02-15T10:07:37;101273.06;;;7.38;59.33
46223;BME280;31943;51.410;7.564;2023-02-15T10:10:15;101266.66;;;7.51;59.34
46223;BME280;31943;51.410;7.564;2023-02-15T10:12:57;101265.44;;;7.65;58.88
46223;BME280;31943;51.410;7.564;2023-02-15T10:15:38;101272.03;;;7.80;58.87
46223;BME280;31943;51.410;7.564;2023-02-15T10:18:27;101277.72;;;7.92;58.58
46223;BME280;31943;51.410;7.564;2023-02-15T10:21:00;101275.66;;;8.07;58.34
46223;BME280;31943;51.410;7.564;2023-02-15T10:23:44;101279.75;;;8.25;57.60
46223;BME280;31943;51.410;7.564;2023-02-15T10:26:16;101276.09;;;8.42;57.69
46223;BME280;31943;51.410;7.564;2023-02-15T10:28:47;101275.69;;;8.56;57.47
46223;BME280;31943;51.410;7.564;2023-02-15T10:31:22;101277.28;;;8.76;57.29
46223;BME280;31943;51.410;7.564;2023-02-15T10:33:56;101270.06;;;8.95;56.40
46223;BME280;31943;51.410;7.564;2023-02-15T10:36:39;101270.75;;;9.16;56.11
46223;BME280;31943;51.410;7.564;2023-02-15T10:39:13;101266.09;;;9.33;55.52
46223;BME280;31943;51.410;7.564;2023-02-15T10:41:48;101269.16;;;9.48;54.85
46223;BME280;31943;51.410;7.564;2023-02-15T10:44:35;101266.19;;;9.65;54.05
46223;BME280;31943;51.410;7.564;2023-02-15T10:47:32;101262.31;;;9.81;53.81
46223;BME280;31943;51.410;7.564;2023-02-15T10:50:22;101258.69;;;10.06;53.59
46223;BME280;31943;51.410;7.564;2023-02-15T10:53:05;101255.75;;;10.25;53.06
46223;BME280;31943;51.410;7.564;2023-02-15T10:55:45;101258.94;;;10.45;52.01
46223;BME280;31943;51.410;7.564;2023-02-15T10:58:26;101250.66;;;10.62;51.97
46223;BME280;31943;51.410;7.564;2023-02-15T11:00:58;101251.94;;;10.78;51.28
46223;BME280;31943;51.410;7.564;2023-02-15T11:03:47;101249.94;;;11.02;51.25
46223;BME280;31943;51.410;7.564;2023-02-15T11:06:21;101246.91;;;11.22;50.98
46223;BME280;31943;51.410;7.564;2023-02-15T11:08:53;101240.97;;;11.27;48.96
46223;BME280;31943;51.410;7.564;2023-02-15T11:11:22;101247.16;;;11.33;49.15
46223;BME280;31943;51.410;7.564;2023-02-15T11:13:54;101238.63;;;11.40;48.64
46223;BME280;31943;51.410;7.564;2023-02-15T11:16:25;101239.56;;;11.43;47.62
46223;BME280;31943;51.410;7.564;2023-02-15T11:18:57;101234.34;;;11.43;47.56
46223;BME280;31943;51.410;7.564;2023-02-15T11:21:28;101234.47;;;11.50;47.96
46223;BME280;31943;51.410;7.564;2023-02-15T11:23:56;101234.72;;;11.60;48.01
46223;BME280;31943;51.410;7.564;2023-02-15T11:26:26;101230.53;;;11.68;47.10
46223;BME280;31943;51.410;7.564;2023-02-15T11:28:56;101225.47;;;11.78;47.25
46223;BME280;31943;51.410;7.564;2023-02-15T11:31:25;101223.06;;;11.87;46.56
46223;BME280;31943;51.410;7.564;2023-02-15T11:33:53;101220.72;;;11.99;46.77
46223;BME280;31943;51.410;7.564;2023-02-15T11:36:24;101223.56;;;12.10;46.34
46223;BME280;31943;51.410;7.564;2023-02-15T11:38:57;101213.34;;;12.24;45.82
46223;BME280;31943;51.410;7.564;2023-02-15T11:41:28;101215.28;;;12.34;45.56
46223;BME280;31943;51.410;7.564;2023-02-15T11:43:58;101207.63;;;12.46;45.35
46223;BME280;31943;51.410;7.564;2023-02-15T11:46:26;101207.75;;;12.53;44.86
46223;BME280;31943;51.410;7.564;2023-02-15T11:48:51;101206.06;;;12.56;44.19
46223;BME280;31943;51.410;7.564;2023-02-15T11:51:18;101199.16;;;12.61;43.93
46223;BME280;31943;51.410;7.564;2023-02-15T11:53:48;101208.66;;;12.55;43.47
46223;BME280;31943;51.410;7.564;2023-02-15T11:56:15;101197.22;;;12.50;43.42
46223;BME280;31943;51.410;7.564;2023-02-15T11:58:44;101196.44;;;12.55;43.32
46223;BME280;31943;51.410;7.564;2023-02-15T12:01:18;101181.81;;;12.66;43.57
46223;BME280;31943;51.410;7.564;2023-02-15T12:03:47;101192.50;;;12.80;43.06
46223;BME280;31943;51.410;7.564;2023-02-15T12:06:19;101183.78;;;12.81;42.01
46223;BME280;31943;51.410;7.564;2023-02-15T12:08:54;101185.50;;;12.79;41.77
46223;BME280;31943;51.410;7.564;2023-02-15T12:11:25;101189.00;;;12.81;42.61
46223;BME280;31943;51.410;7.564;2023-02-15T12:13:54;101182.97;;;12.84;42.28
46223;BME280;31943;51.410;7.564;2023-02-15T12:16:20;101187.47;;;12.94;42.86
46223;BME280;31943;51.410;7.564;2023-02-15T12:18:47;101186.69;;;13.01;42.42
46223;BME280;31943;51.410;7.564;2023-02-15T12:21:15;101188.53;;;13.07;42.13
46223;BME280;31943;51.410;7.564;2023-02-15T12:23:46;101178.97;;;13.11;42.04
46223;BME280;31943;51.410;7.564;2023-02-15T12:26:14;101179.97;;;13.17;41.46
46223;BME280;31943;51.410;7.564;2023-02-15T12:28:42;101181.88;;;13.29;41.62
46223;BME280;31943;51.410;7.564;2023-02-15T12:31:19;101182.03;;;13.40;41.50
46223;BME280;31943;51.410;7.564;2023-02-15T12:33:47;101179.41;;;13.38;41.63
46223;BME280;31943;51.410;7.564;2023-02-15T12:36:18;101178.50;;;13.36;41.34
46223;BME280;31943;51.410;7.564;2023-02-15T12:39:02;101174.22;;;13.44;41.37
46223;BME280;31943;51.410;7.564;2023-02-15T12:41:30;101174.31;;;13.52;41.00
46223;BME280;31943;51.410;7.564;2023-02-15T12:44:05;101165.63;;;13.56;41.22
46223;BME280;31943;51.410;7.564;2023-02-15T12:46:31;101164.84;;;13.60;41.83
46223;BME280;31943;51.410;7.564;2023-02-15T12:49:16;101159.69;;;13.70;41.46
46223;BME280;31943;51.410;7.564;2023-02-15T12:51:44;101162.47;;;13.83;41.70
46223;BME280;31943;51.410;7.564;2023-02-15T12:54:21;101156.44;;;13.91;41.34
46223;BME280;31943;51.410;7.564;2023-02-15T12:56:52;101153.78;;;13.86;40.30
46223;BME280;31943;51.410;7.564;2023-02-15T12:59:19;101154.75;;;13.96;40.44
46223;BME280;31943;51.410;7.564;2023-02-15T13:01:45;101144.28;;;14.00;40.11
46223;BME280;31943;51.410;7.564;2023-02-15T13:04:20;101144.31;;;14.05;40.25
46223;BME280;31943;51.410;7.564;2023-02-15T13:06:49;101143.53;;;14.12;40.54
46223;BME280;31943;51.410;7.564;2023-02-15T13:09:19;101140.16;;;14.24;41.08
46223;BME280;31943;51.410;7.564;2023-02-15T13:11:46;101130.56;;;14.28;39.86
46223;BME280;31943;51.410;7.564;2023-02-15T13:14:20;101134.09;;;14.33;40.32
46223;BME280;31943;51.410;7.564;2023-02-15T13:16:49;101128.91;;;14.37;40.35
46223;BME280;31943;51.410;7.564;2023-02-15T13:19:17;101123.69;;;14.43;39.78
46223;BME280;31943;51.410;7.564;2023-02-15T13:21:47;101119.41;;;14.55;39.04
46223;BME280;31943;51.410;7.564;2023-02-15T13:24:18;101119.50;;;14.66;39.42
46223;BME280;31943;51.410;7.564;2023-02-15T13:26:46;101119.56;;;14.70;39.16
46223;BME280;31943;51.410;7.564;2023-02-15T13:29:21;101118.66;;;14.68;39.39
46223;BME280;31943;51.410;7.564;2023-02-15T13:31:48;101121.22;;;14.59;38.79
46223;BME280;31943;51.410;7.564;2023-02-15T13:34:18;101115.97;;;14.62;38.82
46223;BME280;31943;51.410;7.564;2023-02-15T13:36:51;101107.25;;;14.65;39.12
46223;BME280;31943;51.410;7.564;2023-02-15T13:39:26;101114.25;;;14.62;38.72
46223;BME280;31943;51.410;7.564;2023-02-15T13:42:00;101107.25;;;14.63;38.43
46223;BME280;31943;51.410;7.564;2023-02-15T13:44:48;101100.22;;;14.63;38.54
46223;BME280;31943;51.410;7.564;2023-02-15T13:47:23;101102.00;;;14.68;38.92
46223;BME280;31943;51.410;7.564;2023-02-15T13:50:06;101100.28;;;14.68;38.26
46223;BME280;31943;51.410;7.564;2023-02-15T13:52:41;101098.47;;;14.64;38.30
46223;BME280;31943;51.410;7.564;2023-02-15T13:55:31;101094.09;;;14.63;37.94
46223;BME280;31943;51.410;7.564;2023-02-15T13:58:19;101090.66;;;14.70;38.83
46223;BME280;31943;51.410;7.564;2023-02-15T14:01:01;101087.19;;;14.77;38.92
46223;BME280;31943;51.410;7.564;2023-02-15T14:03:51;101080.22;;;14.86;38.55
46223;BME280;31943;51.410;7.564;2023-02-15T14:06:46;101078.50;;;14.89;38.13
46223;BME280;31943;51.410;7.564;2023-02-15T14:09:24;101079.38;;;14.93;38.32
46223;BME280;31943;51.410;7.564;2023-02-15T14:12:10;101074.16;;;14.97;38.12
46223;BME280;31943;51.410;7.564;2023-02-15T14:15:05;101076.81;;;15.00;38.17
46223;BME280;31943;51.410;7.564;2023-02-15T14:17:45;101075.91;;;14.97;37.90
46223;BME280;31943;51.410;7.564;2023-02-15T14:20:20;101078.53;;;14.94;37.79
46223;BME280;31943;51.410;7.564;2023-02-15T14:22:53;101081.16;;;14.94;38.44
46223;BME280;31943;51.410;7.564;2023-02-15T14:25:27;101076.78;;;14.94;37.80
46223;BME280;31943;51.410;7.564;2023-02-15T14:27:59;101075.88;;;14.91;38.05
46223;BME280;31943;51.410;7.564;2023-02-15T14:30:31;101068.88;;;14.93;38.14
46223;BME280;31943;51.410;7.564;2023-02-15T14:33:03;101063.66;;;14.99;36.96
46223;BME280;31943;51.410;7.564;2023-02-15T14:35:31;101065.41;;;15.00;36.29
46223;BME280;31943;51.410;7.564;2023-02-15T14:38:02;101062.78;;;15.03;36.94
46223;BME280;31943;51.410;7.564;2023-02-15T14:40:35;101060.19;;;15.06;36.09
46223;BME280;31943;51.410;7.564;2023-02-15T14:43:07;101066.31;;;15.07;36.23
46223;BME280;31943;51.410;7.564;2023-02-15T14:45:42;101064.56;;;15.09;36.42
46223;BME280;31943;51.410;7.564;2023-02-15T14:48:17;101061.94;;;15.07;37.37
46223;BME280;31943;51.410;7.564;2023-02-15T14:50:48;101063.69;;;15.05;36.95
46223;BME280;31943;51.410;7.564;2023-02-15T14:53:25;101063.63;;;14.97;36.44
46223;BME280;31943;51.410;7.564;2023-02-15T14:56:19;101059.25;;;14.90;36.69
46223;BME280;31943;51.410;7.564;2023-02-15T14:59:13;101060.03;;;14.75;36.79
46223;BME280;31943;51.410;7.564;2023-02-15T15:01:40;101059.94;;;14.61;36.95
46223;BME280;31943;51.410;7.564;2023-02-15T15:04:15;101067.72;;;14.51;37.38
46223;BME280;31943;51.410;7.564;2023-02-15T15:07:04;101068.53;;;14.42;37.93
46223;BME280;31943;51.410;7.564;2023-02-15T15:09:40;101062.38;;;14.38;37.75
46223;BME280;31943;51.410;7.564;2023-02-15T15:12:18;101060.59;;;14.31;39.66
46223;BME280;31943;51.410;7.564;2023-02-15T15:15:02;101060.44;;;14.14;38.85
46223;BME280;31943;51.410;7.564;2023-02-15T15:17:57;101060.34;;;14.02;41.12
46223;BME280;31943;51.410;7.564;2023-02-15T15:20:55;101059.28;;;13.83;41.00
46223;BME280;31943;51.410;7.564;2023-02-15T15:23:40;101058.31;;;13.73;40.68
46223;BME280;31943;51.410;7.564;2023-02-15T15:26:27;101058.19;;;13.61;42.30
46223;BME280;31943;51.410;7.564;2023-02-15T15:28:54;101057.16;;;13.48;41.02
46223;BME280;31943;51.410;7.564;2023-02-15T15:31:29;101055.34;;;13.41;43.14
46223;BME280;31943;51.410;7.564;2023-02-15T15:34:18;101049.97;;;13.30;42.40
46223;BME280;31943;51.410;7.564;2023-02-15T15:40:27;101061.03;;;13.09;44.96
46223;BME280;31943;51.410;7.564;2023-02-15T15:43:31;101059.06;;;12.91;46.05
46223;BME280;31943;51.410;7.564;2023-02-15T15:46:10;101063.19;;;12.74;47.30
46223;BME280;31943;51.410;7.564;2023-02-15T15:48:40;101056.91;;;12.61;47.82
46223;BME280;31943;51.410;7.564;2023-02-15T15:51:10;101054.88;;;12.41;48.42
46223;BME280;31943;51.410;7.564;2023-02-15T15:53:41;101059.91;;;12.31;49.23
46223;BME280;31943;51.410;7.564;2023-02-15T15:56:14;101057.09;;;12.17;49.89
46223;BME280;31943;51.410;7.564;2023-02-15T15:58:45;101056.88;;;12.04;50.05
46223;BME280;31943;51.410;7.564;2023-02-15T16:01:13;101065.41;;;11.93;50.54
46223;BME280;31943;51.410;7.564;2023-02-15T16:03:48;101063.50;;;11.84;50.75
46223;BME280;31943;51.410;7.564;2023-02-15T16:06:25;101059.81;;;11.74;51.11
46223;BME280;31943;51.410;7.564;2023-02-15T16:08:52;101063.13;;;11.65;51.03
46223;BME280;31943;51.410;7.564;2023-02-15T16:11:23;101065.53;;;11.53;51.60
46223;BME280;31943;51.410;7.564;2023-02-15T16:13:50;101064.31;;;11.36;51.66
46223;BME280;31943;51.410;7.564;2023-02-15T16:16:21;101064.06;;;11.25;51.80
46223;BME280;31943;51.410;7.564;2023-02-15T16:18:47;101063.94;;;11.17;51.53
46223;BME280;31943;51.410;7.564;2023-02-15T16:21:17;101059.41;;;11.08;51.34
46223;BME280;31943;51.410;7.564;2023-02-15T16:23:57;101066.13;;;10.97;51.28
46223;BME280;31943;51.410;7.564;2023-02-15T16:26:44;101061.66;;;10.92;50.95
46223;BME280;31943;51.410;7.564;2023-02-15T16:29:15;101069.34;;;10.84;50.76
46223;BME280;31943;51.410;7.564;2023-02-15T16:31:41;101061.34;;;10.78;51.15
46223;BME280;31943;51.410;7.564;2023-02-15T16:34:16;101057.81;;;10.74;51.15
46223;BME280;31943;51.410;7.564;2023-02-15T16:36:42;101069.78;;;10.66;51.54
46223;BME280;31943;51.410;7.564;2023-02-15T16:39:17;101061.75;;;10.57;51.47
46223;BME280;31943;51.410;7.564;2023-02-15T16:41:45;101074.63;;;10.49;51.92
46223;BME280;31943;51.410;7.564;2023-02-15T16:44:16;101072.72;;;10.42;51.43
46223;BME280;31943;51.410;7.564;2023-02-15T16:46:45;101072.47;;;10.33;51.64
46223;BME280;31943;51.410;7.564;2023-02-15T16:49:15;101073.16;;;10.25;52.15
46223;BME280;31943;51.410;7.564;2023-02-15T16:51:43;101062.50;;;10.16;51.59
46223;BME280;31943;51.410;7.564;2023-02-15T16:54:16;101073.59;;;10.07;52.11
46223;BME280;31943;51.410;7.564;2023-02-15T16:56:45;101067.25;;;9.98;52.22
46223;BME280;31943;51.410;7.564;2023-02-15T16:59:19;101070.50;;;9.89;52.36
46223;BME280;31943;51.410;7.564;2023-02-15T17:01:47;101075.44;;;9.78;52.53
46223;BME280;31943;51.410;7.564;2023-02-15T17:04:27;101079.75;;;9.76;52.68
46223;BME280;31943;51.410;7.564;2023-02-15T17:07:03;101076.94;;;9.70;53.08
46223;BME280;31943;51.410;7.564;2023-02-15T17:09:31;101082.84;;;9.63;52.86
46223;BME280;31943;51.410;7.564;2023-02-15T17:12:00;101085.34;;;9.60;53.13
46223;BME280;31943;51.410;7.564;2023-02-15T17:14:30;101087.91;;;9.57;53.18
46223;BME280;31943;51.410;7.564;2023-02-15T17:17:06;101084.38;;;9.55;53.19
46223;BME280;31943;51.410;7.564;2023-02-15T17:19:40;101089.31;;;9.45;53.07
46223;BME280;31943;51.410;7.564;2023-02-15T17:22:17;101088.44;;;9.45;53.10
46223;BME280;31943;51.410;7.564;2023-02-15T17:24:46;101096.16;;;9.42;52.60
46223;BME280;31943;51.410;7.564;2023-02-15T17:27:26;101098.66;;;9.39;53.07
46223;BME280;31943;51.410;7.564;2023-02-15T17:29:56;101093.38;;;9.36;53.61
46223;BME280;31943;51.410;7.564;2023-02-15T17:32:25;101094.19;;;9.33;53.97
46223;BME280;31943;51.410;7.564;2023-02-15T17:35:05;101087.94;;;9.28;53.75
46223;BME280;31943;51.410;7.564;2023-02-15T17:37:43;101087.84;;;9.25;53.42
46223;BME280;31943;51.410;7.564;2023-02-15T17:40:21;101084.19;;;9.18;53.86
46223;BME280;31943;51.410;7.564;2023-02-15T17:42:55;101093.50;;;9.10;54.04
46223;BME280;31943;51.410;7.564;2023-02-15T17:45:25;101084.66;;;9.05;54.50
46223;BME280;31943;51.410;7.564;2023-02-15T17:47:52;101082.88;;;9.02;54.79
46223;BME280;31943;51.410;7.564;2023-02-15T17:50:21;101093.97;;;8.97;54.43
46223;BME280;31943;51.410;7.564;2023-02-15T17:52:49;101085.13;;;8.91;54.98
46223;BME280;31943;51.410;7.564;2023-02-15T17:55:23;101087.66;;;8.88;54.96
46223;BME280;31943;51.410;7.564;2023-02-15T17:57:51;101091.00;;;8.84;54.78
46223;BME280;31943;51.410;7.564;2023-02-15T18:00:18;101084.03;;;8.83;54.50
46223;BME280;31943;51.410;7.564;2023-02-15T18:02:44;101092.63;;;8.81;54.53
46223;BME280;31943;51.410;7.564;2023-02-15T18:05:13;101085.69;;;8.81;54.48
46223;BME280;31943;51.410;7.564;2023-02-15T18:07:39;101086.56;;;8.80;54.87
46223;BME280;31943;51.410;7.564;2023-02-15T18:10:12;101095.19;;;8.79;55.33
46223;BME280;31943;51.410;7.564;2023-02-15T18:12:40;101089.84;;;8.75;55.16
46223;BME280;31943;51.410;7.564;2023-02-15T18:15:08;101096.63;;;8.69;55.57
46223;BME280;31943;51.410;7.564;2023-02-15T18:17:37;101099.03;;;8.63;55.50
46223;BME280;31943;51.410;7.564;2023-02-15T18:20:14;101105.78;;;8.57;55.79
46223;BME280;31943;51.410;7.564;2023-02-15T18:22:44;101110.84;;;8.54;55.90
46223;BME280;31943;51.410;7.564;2023-02-15T18:25:11;101103.75;;;8.48;56.40
46223;BME280;31943;51.410;7.564;2023-02-15T18:27:38;101114.00;;;8.43;56.33
46223;BME280;31943;51.410;7.564;2023-02-15T18:30:19;101113.66;;;8.34;56.47
46223;BME280;31943;51.410;7.564;2023-02-15T18:32:47;101107.38;;;8.27;56.44
46223;BME280;31943;51.410;7.564;2023-02-15T18:35:18;101102.88;;;8.22;56.57
46223;BME280;31943;51.410;7.564;2023-02-15T18:37:44;101107.06;;;8.18;56.94
46223;BME280;31943;51.410;7.564;2023-02-15T18:40:15;101112.88;;;8.11;56.70
46223;BME280;31943;51.410;7.564;2023-02-15T18:42:43;101112.75;;;8.06;56.52
46223;BME280;31943;51.410;7.564;2023-02-15T18:45:15;101114.47;;;8.06;56.19
46223;BME280;31943;51.410;7.564;2023-02-15T18:47:42;101124.69;;;8.01;56.67
46223;BME280;31943;51.410;7.564;2023-02-15T18:50:10;101127.13;;;7.97;56.53
46223;BME280;31943;51.410;7.564;2023-02-15T18:52:40;101121.00;;;7.95;56.55
46223;BME280;31943;51.410;7.564;2023-02-15T18:55:15;101127.03;;;7.93;56.55
46223;BME280;31943;51.410;7.564;2023-02-15T18:57:43;101122.53;;;7.89;57.20
46223;BME280;31943;51.410;7.564;2023-02-15T19:02:46;101129.25;;;7.83;56.86
46223;BME280;31943;51.410;7.564;2023-02-15T19:05:13;101136.94;;;7.80;57.06
46223;BME280;31943;51.410;7.564;2023-02-15T19:07:40;101138.59;;;7.78;56.91
46223;BME280;31943;51.410;7.564;2023-02-15T19:10:10;101130.91;;;7.81;56.50
46223;BME280;31943;51.410;7.564;2023-02-15T19:12:40;101138.88;;;7.85;56.38
46223;BME280;31943;51.410;7.564;2023-02-15T19:15:13;101142.25;;;7.83;56.60
46223;BME280;31943;51.410;7.564;2023-02-15T19:17:47;101147.44;;;7.83;56.60
46223;BME280;31943;51.410;7.564;2023-02-15T19:20:21;101145.84;;;7.86;56.86
46223;BME280;31943;51.410;7.564;2023-02-15T19:22:52;101149.31;;;7.87;56.68
46223;BME280;31943;51.410;7.564;2023-02-15T19:25:21;101144.91;;;7.84;56.89
46223;BME280;31943;51.410;7.564;2023-02-15T19:27:52;101141.59;;;7.88;56.92
46223;BME280;31943;51.410;7.564;2023-02-15T19:30:22;101135.53;;;7.89;56.70
46223;BME280;31943;51.410;7.564;2023-02-15T19:32:50;101142.41;;;7.87;57.12
46223;BME280;31943;51.410;7.564;2023-02-15T19:35:19;101152.03;;;7.90;56.54
46223;BME280;31943;51.410;7.564;2023-02-15T19:37:46;101151.13;;;7.89;56.78
46223;BME280;31943;51.410;7.564;2023-02-15T19:40:20;101149.19;;;7.84;56.97
46223;BME280;31943;51.410;7.564;2023-02-15T19:42:47;101145.66;;;7.82;56.61
46223;BME280;31943;51.410;7.564;2023-02-15T19:45:19;101136.19;;;7.82;57.16
46223;BME280;31943;51.410;7.564;2023-02-15T19:47:48;101131.13;;;7.87;56.55
46223;BME280;31943;51.410;7.564;2023-02-15T19:50:23;101126.81;;;7.87;56.70
46223;BME280;31943;51.410;7.564;2023-02-15T19:52:49;101124.22;;;7.87;57.04
46223;BME280;31943;51.410;7.564;2023-02-15T19:55:21;101121.53;;;7.84;56.97
46223;BME280;31943;51.410;7.564;2023-02-15T19:57:51;101132.13;;;7.90;56.51
46223;BME280;31943;51.410;7.564;2023-02-15T20:00:20;101133.00;;;7.91;56.75
46223;BME280;31943;51.410;7.564;2023-02-15T20:02:46;101131.41;;;7.95;56.36
46223;BME280;31943;51.410;7.564;2023-02-15T20:05:12;101141.06;;;7.99;56.39
46223;BME280;31943;51.410;7.564;2023-02-15T20:07:43;101140.25;;;8.00;56.65
46223;BME280;31943;51.410;7.564;2023-02-15T20:10:15;101134.88;;;7.95;56.45
46223;BME280;31943;51.410;7.564;2023-02-15T20:12:42;101140.00;;;7.93;56.59
46223;BME280;31943;51.410;7.564;2023-02-15T20:15:17;101147.06;;;7.96;56.61
46223;BME280;31943;51.410;7.564;2023-02-15T20:17:43;101147.06;;;7.96;56.78
46223;BME280;31943;51.410;7.564;2023-02-15T20:20:12;101143.72;;;8.00;56.65
46223;BME280;31943;51.410;7.564;2023-02-15T20:22:41;101154.22;;;8.03;56.29
46223;BME280;31943;51.410;7.564;2023-02-15T20:27:54;101155.16;;;8.05;56.31
46223;BME280;31943;51.410;7.564;2023-02-15T20:30:23;101154.22;;;8.03;56.56
46223;BME280;31943;51.410;7.564;2023-02-15T20:32:49;101149.00;;;8.03;56.80
46223;BME280;31943;51.410;7.564;2023-02-15T20:35:19;101156.00;;;8.04;56.30
46223;BME280;31943;51.410;7.564;2023-02-15T20:37:50;101161.06;;;8.01;56.63
46223;BME280;31943;51.410;7.564;2023-02-15T20:40:20;101154.06;;;7.99;56.50
46223;BME280;31943;51.410;7.564;2023-02-15T20:42:51;101150.53;;;7.97;56.83
46223;BME280;31943;51.410;7.564;2023-02-15T20:45:22;101154.84;;;7.96;56.42
46223;BME280;31943;51.410;7.564;2023-02-15T20:47:51;101152.97;;;7.92;56.56
46223;BME280;31943;51.410;7.564;2023-02-15T20:50:21;101153.59;;;7.85;56.86
46223;BME280;31943;51.410;7.564;2023-02-15T20:52:57;101148.16;;;7.79;56.80
46223;BME280;31943;51.410;7.564;2023-02-15T20:55:25;101145.50;;;7.77;57.09
46223;BME280;31943;51.410;7.564;2023-02-15T20:57:55;101140.09;;;7.71;57.13
46223;BME280;31943;51.410;7.564;2023-02-15T21:00:27;101139.03;;;7.66;57.36